^^
Meteo Knjazevac Station Historical Data
Daily Summary for August 10, 2021 Units:  Both    English   Metric
Daily Weekly Monthly Yearly Custom
  High: Low: Average:
Temperature: 71.2 °F /  21.8 °C 64.2 °F /  17.9 °C 67.5 °F /  19.7 °C
Dew Point: 61.2 °F /  16.2 °C 59.3 °F /  15.2 °C 60.3 °F /  15.7 °C
Humidity: 84% 70% 78%
Wind Speed: 2mph /  3.2km/h - 0.6mph /  1km/h
Wind Gust: 5mph /  8km/h - -
Wind- - WNW
Pressure: 30.12 in /  1019.9 hPa 30.11 in /  1019.5 hPa -
Precipitation: 0.00 in /  0 mm    
Historical Graphs
 
 
Tabular Data for August 10, 2021
Time Temperature Dew Point Pressure Wind Wind Speed Wind Gust Humidity Rainfall Rate (Hourly) solar Conditions
00:00 71.2 °F /  21.8 °C 61 °F /  16.1 °C 30.12in /  1019.9hPa West 1mph /  1.6km/h 2mph /  3.2km/h 70% 0.00in /  0mm 0 W/m2
00:10 70.9 °F /  21.6 °C 61.1 °F /  16.2 °C 30.12in /  1019.9hPa Calm   1mph /  1.6km/h 71% 0.00in /  0mm 0 W/m2
00:20 70.7 °F /  21.5 °C 60.8 °F /  16 °C 30.12in /  1019.9hPa NW 1mph /  1.6km/h 2mph /  3.2km/h 71% 0.00in /  0mm 0 W/m2
00:30 70.7 °F /  21.5 °C 61.2 °F /  16.2 °C 30.12in /  1019.9hPa Calm   1mph /  1.6km/h 72% 0.00in /  0mm 0 W/m2
00:40 70.7 °F /  21.5 °C 61.2 °F /  16.2 °C 30.11in /  1019.5hPa Calm   1mph /  1.6km/h 72% 0.00in /  0mm 0 W/m2
00:50 70.2 °F /  21.2 °C 61.1 °F /  16.2 °C 30.11in /  1019.5hPa Calm   2mph /  3.2km/h 73% 0.00in /  0mm 0 W/m2
01:00 70 °F /  21.1 °C 60.9 °F /  16.1 °C 30.11in /  1019.5hPa NW 1mph /  1.6km/h 2mph /  3.2km/h 73% 0.00in /  0mm 0 W/m2
01:10 69.4 °F /  20.8 °C 60.8 °F /  16 °C 30.11in /  1019.5hPa Calm   2mph /  3.2km/h 74% 0.00in /  0mm 0 W/m2
01:20 69.1 °F /  20.6 °C 60.4 °F /  15.8 °C 30.11in /  1019.5hPa Calm   2mph /  3.2km/h 74% 0.00in /  0mm 0 W/m2
01:30 68.5 °F /  20.3 °C 60.2 °F /  15.7 °C 30.11in /  1019.5hPa NW 1mph /  1.6km/h 2mph /  3.2km/h 75% 0.00in /  0mm 0 W/m2
01:40 68 °F /  20 °C 60.5 °F /  15.8 °C 30.11in /  1019.5hPa West 1mph /  1.6km/h 5mph /  8km/h 77% 0.00in /  0mm 0 W/m2
01:50 68 °F /  20 °C 60.5 °F /  15.8 °C 30.11in /  1019.5hPa WNW 1mph /  1.6km/h 4mph /  6.4km/h 77% 0.00in /  0mm 0 W/m2
02:00 67.8 °F /  19.9 °C 60.7 °F /  15.9 °C 30.11in /  1019.5hPa Calm   2mph /  3.2km/h 78% 0.00in /  0mm 0 W/m2
02:10 67.5 °F /  19.7 °C 60.4 °F /  15.8 °C 30.11in /  1019.5hPa NNW 1mph /  1.6km/h 1mph /  1.6km/h 78% 0.00in /  0mm 0 W/m2
02:20 67.1 °F /  19.5 °C 60.4 °F /  15.8 °C 30.12in /  1019.9hPa Calm   2mph /  3.2km/h 79% 0.00in /  0mm 0 W/m2
02:30 67.1 °F /  19.5 °C 60.4 °F /  15.8 °C 30.11in /  1019.5hPa Calm   2mph /  3.2km/h 79% 0.00in /  0mm 0 W/m2
02:40 66.9 °F /  19.4 °C 60.2 °F /  15.7 °C 30.11in /  1019.5hPa Calm     79% 0.00in /  0mm 0 W/m2
02:50 66.7 °F /  19.3 °C 60 °F /  15.6 °C 30.11in /  1019.5hPa Calm     79% 0.00in /  0mm 0 W/m2
03:00 66.7 °F /  19.3 °C 60.4 °F /  15.8 °C 30.11in /  1019.5hPa Calm   1mph /  1.6km/h 80% 0.00in /  0mm 0 W/m2
03:10 66.6 °F /  19.2 °C 60.2 °F /  15.7 °C 30.11in /  1019.5hPa WSW 1mph /  1.6km/h 2mph /  3.2km/h 80% 0.00in /  0mm 0 W/m2
03:20 66.1 °F /  18.9 °C 59.7 °F /  15.4 °C 30.11in /  1019.5hPa West 2mph /  3.2km/h 2mph /  3.2km/h 80% 0.00in /  0mm 0 W/m2
03:30 65.7 °F /  18.7 °C 59.8 °F /  15.4 °C 30.12in /  1019.9hPa WNW 1mph /  1.6km/h 2mph /  3.2km/h 81% 0.00in /  0mm 0 W/m2
03:40 65.5 °F /  18.6 °C 59.5 °F /  15.3 °C 30.12in /  1019.9hPa WSW 1mph /  1.6km/h 3mph /  4.8km/h 81% 0.00in /  0mm 0 W/m2
03:50 64.9 °F /  18.3 °C 59.7 °F /  15.4 °C 30.11in /  1019.5hPa WSW 2mph /  3.2km/h 3mph /  4.8km/h 83% 0.00in /  0mm 0 W/m2
04:00 64.8 °F /  18.2 °C 59.8 °F /  15.4 °C 30.11in /  1019.5hPa West 2mph /  3.2km/h 4mph /  6.4km/h 84% 0.00in /  0mm 0 W/m2
04:10 64.8 °F /  18.2 °C 59.8 °F /  15.4 °C 30.12in /  1019.9hPa West 2mph /  3.2km/h 3mph /  4.8km/h 84% 0.00in /  0mm 0 W/m2
04:20 64.8 °F /  18.2 °C 59.8 °F /  15.4 °C 30.12in /  1019.9hPa NW 1mph /  1.6km/h 3mph /  4.8km/h 84% 0.00in /  0mm 0 W/m2
04:30 64.8 °F /  18.2 °C 59.8 °F /  15.4 °C 30.12in /  1019.9hPa Calm   4mph /  6.4km/h 84% 0.00in /  0mm 0 W/m2
04:40 64.6 °F /  18.1 °C 59.6 °F /  15.3 °C 30.12in /  1019.9hPa Calm   1mph /  1.6km/h 84% 0.00in /  0mm 0 W/m2
04:50 64.2 °F /  17.9 °C 59.3 °F /  15.2 °C 30.12in /  1019.9hPa Calm   1mph /  1.6km/h 84% 0.00in /  0mm 0 W/m2
Knjazevac, Serbia
Compliments of Weather Underground - 2 mb